Time;durP1;ratioP1;P1;durP2;ratioP2;P2;SDS_P1;SDS_P2;PMS_P1;PMS_P2;Temp;Humidity;BMP_temperature;BMP_pressure;BME280_temperature;BME280_humidity;BME280_pressure;Samples;Min_cycle;Max_cycle;Signal;HPM_P1;HPM_P2
2022/05/18 00:00:28;;;;;;;3.35;1.90;;;;;;;14.17;100.00;102136.94;4842977;29;20056;-76
2022/05/18 00:03:03;;;;;;;2.85;1.92;;;;;;;14.02;100.00;102139.13;4851228;29;20033;-75
2022/05/18 00:05:29;;;;;;;4.88;2.08;;;;;;;13.90;100.00;102132.28;4850227;29;20041;-77
2022/05/18 00:07:54;;;;;;;4.35;1.40;;;;;;;13.83;100.00;102131.97;4838861;29;20105;-76
2022/05/18 00:10:20;;;;;;;6.75;1.40;;;;;;;13.77;100.00;102134.34;4851439;29;20041;-77
2022/05/18 00:12:48;;;;;;;3.15;1.50;;;;;;;13.68;100.00;102133.31;4853516;29;20033;-76
2022/05/18 00:15:15;;;;;;;4.50;1.50;;;;;;;13.77;100.00;102131.69;4847351;29;20446;-77
2022/05/18 00:17:41;;;;;;;5.00;1.10;;;;;;;13.75;99.68;102138.88;4855714;29;20105;-79
2022/05/18 00:20:08;;;;;;;3.88;1.10;;;;;;;13.53;97.97;102113.56;4854679;29;20639;-77
2022/05/18 00:22:43;;;;;;;4.50;1.10;;;;;;;13.69;96.56;102148.16;4847152;29;20049;-79
2022/05/18 00:25:09;;;;;;;5.93;1.00;;;;;;;13.57;95.59;102146.59;4862613;29;20033;-78
2022/05/18 00:27:34;;;;;;;2.40;1.00;;;;;;;13.38;95.39;102142.91;4875601;29;20180;-76
2022/05/18 00:30:00;;;;;;;6.15;1.20;;;;;;;13.38;95.13;102135.00;4867209;29;20559;-78
2022/05/18 00:32:26;;;;;;;9.40;1.15;;;;;;;13.35;95.39;102145.78;4868230;29;20034;-76
2022/05/18 00:34:51;;;;;;;1.88;1.02;;;;;;;13.37;92.97;102137.75;4850237;29;20044;-77
2022/05/18 00:37:17;;;;;;;4.15;0.90;;;;;;;13.34;94.08;102143.31;4869810;29;20037;-78
2022/05/18 00:39:43;;;;;;;6.43;1.27;;;;;;;13.26;90.72;102138.66;4858989;29;20363;-77
2022/05/18 00:42:22;;;;;;;6.03;1.10;;;;;;;13.32;90.02;102137.31;4861645;29;20060;-77
2022/05/18 00:44:48;;;;;;;4.53;1.20;;;;;;;13.26;90.90;102141.28;4866862;29;20029;-76
2022/05/18 00:47:14;;;;;;;1.98;0.98;;;;;;;13.08;91.29;102127.03;4861586;29;20037;-78
2022/05/18 00:49:42;;;;;;;2.97;1.00;;;;;;;12.95;92.05;102140.38;4872057;29;20042;-76
2022/05/18 00:52:09;;;;;;;4.95;0.90;;;;;;;12.93;90.87;102137.03;4855054;29;20052;-77
2022/05/18 00:54:36;;;;;;;4.28;0.80;;;;;;;12.98;90.52;102135.69;4866468;29;20049;-78
2022/05/18 00:57:16;;;;;;;1.90;1.15;;;;;;;12.89;89.05;102131.19;4854953;29;20065;-77
2022/05/18 00:59:52;;;;;;;1.77;0.80;;;;;;;12.92;89.61;102148.53;4855798;29;20099;-78
2022/05/18 01:02:21;;;;;;;4.47;0.98;;;;;;;12.86;89.67;102147.22;4839680;29;20068;-78
2022/05/18 01:04:50;;;;;;;3.72;0.90;;;;;;;12.88;87.56;102133.94;4860947;29;20034;-78
2022/05/18 01:07:24;;;;;;;3.60;0.80;;;;;;;12.84;88.73;102144.72;4839704;29;20073;-78
2022/05/18 01:09:50;;;;;;;7.97;1.00;;;;;;;12.81;89.79;102149.44;4866239;29;20041;-79
2022/05/18 01:12:18;;;;;;;3.15;0.82;;;;;;;12.78;88.13;102163.66;4868245;29;20056;-77
2022/05/18 01:14:48;;;;;;;4.28;0.60;;;;;;;12.78;88.84;102165.47;4836285;29;20052;-78
2022/05/18 01:17:18;;;;;;;2.50;0.90;;;;;;;12.64;90.02;102164.81;4866812;29;20044;-78
2022/05/18 01:19:47;;;;;;;9.50;0.90;;;;;;;12.56;90.85;102166.38;4844093;29;20496;-78
2022/05/18 01:23:05;;;;;;;6.30;1.20;;;;;;;12.58;89.97;102156.56;4840868;29;20040;-78
2022/05/18 01:25:53;;;;;;;6.18;1.00;;;;;;;12.57;89.85;102153.09;4852147;29;20045;-78
2022/05/18 01:28:23;;;;;;;2.97;0.82;;;;;;;12.55;90.06;102143.69;4856054;29;20121;-78
2022/05/18 01:30:48;;;;;;;3.38;0.82;;;;;;;12.55;89.79;102149.75;4862943;29;20493;-79
2022/05/18 01:33:17;;;;;;;7.93;0.80;;;;;;;12.52;90.19;102160.53;4855796;29;20040;-78
2022/05/18 01:35:44;;;;;;;5.93;0.88;;;;;;;12.43;92.08;102154.25;4855703;29;20044;-78
2022/05/18 01:38:12;;;;;;;3.38;0.75;;;;;;;12.37;92.76;102152.09;4841196;29;20181;-78
2022/05/18 01:40:40;;;;;;;2.88;0.73;;;;;;;12.33;92.30;102155.91;4859208;29;20033;-76
2022/05/18 01:43:15;;;;;;;4.55;0.70;;;;;;;12.31;92.15;102152.59;4861338;29;20048;-79
2022/05/18 01:45:41;;;;;;;4.00;0.85;;;;;;;12.31;92.48;102154.38;4857628;29;20043;-77
2022/05/18 01:48:10;;;;;;;5.15;0.73;;;;;;;12.24;94.23;102157.53;4863180;29;20096;-75
2022/05/18 01:50:36;;;;;;;6.28;0.90;;;;;;;12.26;92.33;102152.09;4857744;29;20042;-78
2022/05/18 01:53:02;;;;;;;2.92;1.00;;;;;;;12.25;92.63;102150.44;4854769;29;20044;-77
2022/05/18 01:55:27;;;;;;;5.25;0.70;;;;;;;12.16;94.15;102154.66;4853916;29;20041;-80
2022/05/18 01:57:53;;;;;;;3.33;0.82;;;;;;;12.16;92.84;102153.81;4864825;29;20080;-80
2022/05/18 02:00:19;;;;;;;2.45;0.95;;;;;;;12.03;94.60;102153.94;4838650;29;20497;-80
2022/05/18 02:02:45;;;;;;;2.95;0.70;;;;;;;11.97;95.09;102149.19;4854344;29;20045;-78
2022/05/18 02:05:11;;;;;;;2.15;0.80;;;;;;;11.95;95.46;102154.56;4850321;29;20065;-77
2022/05/18 02:07:37;;;;;;;7.00;1.23;;;;;;;12.02;93.41;102155.75;4857462;29;20560;-78
2022/05/18 02:10:04;;;;;;;3.28;0.70;;;;;;;12.17;91.11;102158.97;4844967;29;20037;-77
2022/05/18 02:12:29;;;;;;;3.67;1.40;;;;;;;12.08;92.96;102147.38;4866950;29;20033;-77
2022/05/18 02:14:55;;;;;;;5.15;0.80;;;;;;;12.12;91.33;102152.41;4860379;29;20414;-78
2022/05/18 02:17:20;;;;;;;5.82;0.90;;;;;;;12.05;91.90;102144.13;4837767;29;20174;-77
2022/05/18 02:19:46;;;;;;;1.38;0.70;;;;;;;12.08;90.98;102141.28;4866422;29;20141;-78
2022/05/18 02:22:12;;;;;;;3.63;0.93;;;;;;;12.04;91.13;102140.69;4842388;29;20780;-77
2022/05/18 02:24:38;;;;;;;2.83;0.88;;;;;;;12.07;90.28;102132.56;4859581;29;20073;-78
2022/05/18 02:27:04;;;;;;;2.08;0.77;;;;;;;12.03;91.08;102138.16;4839750;29;20033;-79
2022/05/18 02:29:29;;;;;;;4.82;0.80;;;;;;;12.05;90.79;102136.25;4856281;29;20523;-76
2022/05/18 02:31:55;;;;;;;5.05;0.90;;;;;;;12.12;90.96;102136.63;4848444;29;20037;-77
2022/05/18 02:34:20;;;;;;;6.03;1.17;;;;;;;12.02;93.49;102137.34;4852956;29;20551;-80
2022/05/18 02:36:46;;;;;;;4.93;0.95;;;;;;;12.05;90.67;102133.63;4862570;29;20123;-77
2022/05/18 02:39:11;;;;;;;2.17;0.88;;;;;;;12.04;91.14;102137.22;4852586;29;20034;-78
2022/05/18 02:41:37;;;;;;;4.55;0.98;;;;;;;12.05;90.10;102131.00;4860740;29;20039;-78
2022/05/18 02:44:03;;;;;;;3.45;0.90;;;;;;;12.06;90.11;102133.50;4872968;29;20084;-78
2022/05/18 02:46:28;;;;;;;7.68;0.90;;;;;;;12.08;90.71;102143.91;4867931;29;20412;-78
2022/05/18 02:48:54;;;;;;;4.20;0.90;;;;;;;11.97;92.70;102136.03;4861681;29;20044;-79
2022/05/18 02:51:20;;;;;;;3.88;1.05;;;;;;;12.05;90.82;102147.63;4854850;29;20065;-77
2022/05/18 02:53:46;;;;;;;1.30;1.00;;;;;;;12.01;91.42;102147.97;4853601;29;20394;-80
2022/05/18 02:56:16;;;;;;;4.25;1.00;;;;;;;12.08;89.66;102144.72;4845716;29;20037;-78
2022/05/18 02:58:46;;;;;;;6.70;1.10;;;;;;;12.06;89.88;102148.47;4857167;29;20131;-77
2022/05/18 03:01:15;;;;;;;8.63;1.08;;;;;;;12.02;90.13;102153.13;4842358;29;20029;-77
2022/05/18 03:03:41;;;;;;;4.25;1.10;;;;;;;12.04;89.50;102148.56;4851548;29;20037;-80
2022/05/18 03:06:09;;;;;;;4.10;0.90;;;;;;;12.04;90.38;102155.63;4871009;29;20036;-76
2022/05/18 03:08:38;;;;;;;3.08;0.82;;;;;;;12.00;90.75;102144.53;4867146;29;20044;-77
2022/05/18 03:11:04;;;;;;;2.53;0.90;;;;;;;12.10;89.36;102157.78;4871635;29;20044;-77
2022/05/18 03:13:30;;;;;;;3.35;0.88;;;;;;;12.07;89.64;102155.38;4861977;29;20268;-75
2022/05/18 03:15:56;;;;;;;2.58;1.13;;;;;;;12.06;90.73;102169.50;4846242;29;20041;-77
2022/05/18 03:18:23;;;;;;;1.75;0.90;;;;;;;11.99;90.90;102169.13;4866544;29;20076;-75
2022/05/18 03:23:33;;;;;;;7.03;1.10;;;;;;;12.01;90.71;102182.16;4863303;29;20041;-76
2022/05/18 03:26:09;;;;;;;5.38;1.00;;;;;;;12.03;90.39;102177.63;4844177;29;20405;-77
2022/05/18 03:28:37;;;;;;;3.97;0.90;;;;;;;11.99;91.47;102170.94;4863944;29;20062;-77
2022/05/18 03:31:03;;;;;;;2.47;0.80;;;;;;;11.98;91.53;102175.38;4859919;29;20041;-77
2022/05/18 03:33:29;;;;;;;2.25;0.90;;;;;;;12.00;91.40;102185.78;4846738;29;20136;-78
2022/05/18 03:35:55;;;;;;;6.32;1.00;;;;;;;11.91;91.97;102182.06;4861087;29;20032;-78
2022/05/18 03:38:22;;;;;;;5.15;1.05;;;;;;;11.89;93.38;102181.31;4847667;29;20045;-78
2022/05/18 03:40:48;;;;;;;10.25;1.42;;;;;;;11.96;91.45;102173.78;4854111;29;20037;-78
2022/05/18 03:43:14;;;;;;;3.75;0.90;;;;;;;11.81;93.20;102162.66;4823868;29;20145;-78
2022/05/18 03:45:40;;;;;;;3.33;1.00;;;;;;;11.85;94.19;102177.25;4870010;29;20033;-77
2022/05/18 03:48:08;;;;;;;3.30;1.10;;;;;;;11.86;93.22;102181.53;4862054;29;20327;-77
2022/05/18 03:50:37;;;;;;;3.50;1.02;;;;;;;11.87;91.97;102177.97;4872133;29;20044;-78
2022/05/18 03:53:03;;;;;;;3.35;1.00;;;;;;;11.91;91.40;102179.44;4849398;29;20044;-79
2022/05/18 03:55:30;;;;;;;4.15;0.93;;;;;;;11.85;92.11;102172.81;4848149;29;20037;-78
2022/05/18 03:57:56;;;;;;;4.30;0.85;;;;;;;11.91;92.60;102181.22;4861652;29;20069;-79
2022/05/18 04:00:22;;;;;;;2.95;1.00;;;;;;;11.93;91.55;102179.31;4863644;29;20057;-79
2022/05/18 04:02:48;;;;;;;1.33;0.80;;;;;;;11.92;91.91;102170.56;4857324;29;20048;-75
2022/05/18 04:05:15;;;;;;;8.10;1.15;;;;;;;11.83;92.25;102166.84;4842193;29;20049;-78
2022/05/18 04:07:41;;;;;;;5.22;1.30;;;;;;;11.87;92.76;102177.97;4856795;29;20029;-77
2022/05/18 04:10:07;;;;;;;1.85;0.80;;;;;;;11.83;93.08;102181.78;4858519;29;20745;-78
2022/05/18 04:12:34;;;;;;;5.35;1.00;;;;;;;11.79;92.51;102172.44;4844559;29;20631;-77
2022/05/18 04:15:00;;;;;;;5.72;1.17;;;;;;;11.78;93.78;102174.25;4863942;29;20064;-77
2022/05/18 04:17:26;;;;;;;3.28;1.20;;;;;;;11.80;94.08;102174.97;4847169;29;20096;-79
2022/05/18 04:19:52;;;;;;;3.25;0.95;;;;;;;11.86;92.54;102169.22;4865869;29;20045;-78
2022/05/18 04:22:18;;;;;;;4.78;1.30;;;;;;;11.87;93.17;102181.41;4860244;29;20051;-77
2022/05/18 04:24:44;;;;;;;6.00;1.20;;;;;;;11.90;92.78;102177.75;4869276;29;20037;-79
2022/05/18 04:27:10;;;;;;;5.57;1.20;;;;;;;11.88;93.14;102169.09;4852649;29;20412;-79
2022/05/18 04:29:37;;;;;;;6.68;1.30;;;;;;;11.98;92.16;102174.50;4863871;29;20424;-80
2022/05/18 04:32:04;;;;;;;10.88;1.30;;;;;;;12.00;91.96;102165.56;4841712;29;20033;-79
2022/05/18 04:34:30;;;;;;;3.30;1.20;;;;;;;12.00;93.34;102162.94;4853944;29;20038;-78
2022/05/18 04:36:55;;;;;;;5.40;1.13;;;;;;;12.15;92.50;102187.19;4858333;29;20492;-77
2022/05/18 04:39:21;;;;;;;2.92;1.10;;;;;;;12.19;92.04;102175.47;4841645;29;20453;-77
2022/05/18 04:41:47;;;;;;;5.93;1.02;;;;;;;12.27;92.82;102182.72;4861508;29;20190;-77
2022/05/18 04:44:12;;;;;;;6.93;1.20;;;;;;;12.36;91.18;102179.38;4859687;29;20037;-79
2022/05/18 04:46:40;;;;;;;4.40;1.45;;;;;;;12.38;91.31;102177.44;4879398;29;20112;-78
2022/05/18 04:49:07;;;;;;;3.10;1.17;;;;;;;12.54;90.90;102181.47;4847487;29;20495;-78
2022/05/18 04:51:33;;;;;;;3.33;1.20;;;;;;;12.65;89.86;102179.63;4856441;29;20041;-79
2022/05/18 04:53:59;;;;;;;2.72;1.10;;;;;;;12.68;89.85;102167.19;4838353;29;20042;-79
2022/05/18 04:56:25;;;;;;;4.80;1.08;;;;;;;12.73;91.27;102176.38;4839758;29;20037;-78
2022/05/18 04:58:51;;;;;;;5.82;1.10;;;;;;;12.80;92.13;102184.63;4863855;29;20556;-78
2022/05/18 05:01:17;;;;;;;4.28;1.35;;;;;;;12.94;90.30;102191.38;4844553;29;20572;-78
2022/05/18 05:03:43;;;;;;;2.47;1.10;;;;;;;12.86;89.45;102181.47;4851238;29;20489;-80
2022/05/18 05:06:09;;;;;;;2.45;1.10;;;;;;;12.82;88.66;102180.88;4864895;29;20052;-78
2022/05/18 05:08:35;;;;;;;8.13;1.08;;;;;;;12.81;90.17;102192.38;4878267;29;20030;-78
2022/05/18 05:11:01;;;;;;;7.70;1.23;;;;;;;12.83;89.66;102193.09;4863124;29;20119;-79
2022/05/18 05:13:27;;;;;;;2.17;1.08;;;;;;;12.80;88.93;102181.97;4847403;29;20114;-78
2022/05/18 05:16:09;;;;;;;5.35;1.10;;;;;;;12.81;91.80;102197.66;4866508;29;20066;-78
2022/05/18 05:18:35;;;;;;;6.65;1.33;;;;;;;12.98;89.63;102206.81;4876615;29;20044;-79
2022/05/18 05:21:01;;;;;;;5.28;1.27;;;;;;;12.97;90.63;102201.66;4859386;29;20053;-79
2022/05/18 05:23:28;;;;;;;3.65;1.60;;;;;;;12.95;90.02;102199.16;4845679;29;20481;-77
2022/05/18 05:25:55;;;;;;;3.67;1.30;;;;;;;13.12;90.60;102210.09;4865154;29;20364;-79
2022/05/18 05:28:21;;;;;;;8.25;1.40;;;;;;;13.14;89.73;102205.53;4847659;29;20041;-79
2022/05/18 05:30:47;;;;;;;3.10;1.13;;;;;;;13.22;90.45;102201.31;4872514;29;20037;-80
2022/05/18 05:33:13;;;;;;;4.00;1.38;;;;;;;13.26;89.04;102199.25;4862166;29;20169;-78
2022/05/18 05:35:41;;;;;;;3.45;1.77;;;;;;;13.37;89.44;102201.84;4847901;29;20694;-78
2022/05/18 05:38:08;;;;;;;3.28;1.23;;;;;;;13.51;89.68;102189.31;4841946;29;20041;-78
2022/05/18 05:40:34;;;;;;;4.05;1.33;;;;;;;13.54;88.85;102181.97;4850304;29;20045;-80
2022/05/18 05:43:08;;;;;;;1.83;1.30;;;;;;;13.79;88.20;102193.06;4854596;29;20506;-79
2022/05/18 05:45:34;;;;;;;2.25;1.30;;;;;;;13.82;88.06;102196.25;4865138;29;20042;-79
2022/05/18 05:48:01;;;;;;;4.03;1.60;;;;;;;13.73;87.89;102188.28;4851688;29;20049;-79
2022/05/18 05:50:27;;;;;;;5.43;1.35;;;;;;;13.80;88.84;102200.81;4864990;29;20038;-78
2022/05/18 05:52:53;;;;;;;2.47;1.30;;;;;;;13.90;87.70;102211.44;4861247;29;20769;-78
2022/05/18 05:55:19;;;;;;;3.97;1.73;;;;;;;14.03;87.61;102211.16;4846681;29;20124;-79
2022/05/18 05:57:44;;;;;;;3.72;1.55;;;;;;;14.25;86.85;102206.69;4863716;29;20428;-79
2022/05/18 06:00:11;;;;;;;9.10;1.65;;;;;;;14.42;87.83;102206.00;4856593;29;20033;-77
2022/05/18 06:02:40;;;;;;;5.20;1.80;;;;;;;14.50;84.99;102207.97;4865308;29;20487;-79
2022/05/18 06:05:06;;;;;;;1.75;1.27;;;;;;;14.45;85.10;102194.34;4859904;29;20025;-79
2022/05/18 06:07:33;;;;;;;5.55;1.75;;;;;;;14.38;87.00;102194.06;4840569;29;20089;-79
2022/05/18 06:09:59;;;;;;;2.08;1.48;;;;;;;14.32;86.48;102195.44;4853155;29;20067;-79
2022/05/18 06:12:25;;;;;;;5.38;1.63;;;;;;;14.26;87.56;102185.44;4868357;29;20678;-78
2022/05/18 06:14:50;;;;;;;7.90;2.10;;;;;;;14.28;89.06;102190.56;4865896;29;20049;-79
2022/05/18 06:17:16;;;;;;;3.30;1.40;;;;;;;14.23;89.29;102184.88;4839886;29;20125;-79
2022/05/18 06:19:41;;;;;;;3.65;2.00;;;;;;;14.12;90.63;102180.53;4864768;29;20112;-78
2022/05/18 06:22:07;;;;;;;4.75;2.08;;;;;;;13.98;90.47;102190.47;4861510;29;20053;-77
2022/05/18 06:24:33;;;;;;;3.28;1.65;;;;;;;13.91;91.91;102194.63;4863400;29;20042;-80
2022/05/18 06:26:59;;;;;;;3.53;1.90;;;;;;;13.90;93.35;102206.16;4857639;29;20040;-77
2022/05/18 06:29:25;;;;;;;9.10;2.13;;;;;;;13.81;93.71;102191.94;4848959;29;20060;-79
2022/05/18 06:31:51;;;;;;;7.97;1.95;;;;;;;13.83;91.71;102203.19;4867957;29;20049;-78
2022/05/18 06:34:17;;;;;;;2.67;1.90;;;;;;;13.82;93.05;102193.63;4859462;29;20116;-78
2022/05/18 06:36:42;;;;;;;4.50;1.85;;;;;;;13.88;92.75;102201.94;4878440;29;20048;-77
2022/05/18 06:39:08;;;;;;;4.22;2.03;;;;;;;13.92;92.98;102198.94;4847762;29;20116;-78
2022/05/18 06:41:36;;;;;;;6.22;2.10;;;;;;;13.92;93.25;102203.34;4855461;29;20165;-78
2022/05/18 06:44:04;;;;;;;7.40;2.10;;;;;;;14.02;92.79;102193.69;4855465;29;20029;-77
2022/05/18 06:46:36;;;;;;;7.10;2.05;;;;;;;14.14;93.04;102191.78;4867688;29;20036;-80
2022/05/18 06:49:07;;;;;;;2.08;1.65;;;;;;;14.19;93.29;102184.28;4835460;29;20033;-78
2022/05/18 06:51:36;;;;;;;4.80;2.00;;;;;;;14.34;92.54;102197.94;4842089;29;20049;-80
2022/05/18 06:54:02;;;;;;;5.47;1.88;;;;;;;14.39;93.07;102186.00;4841612;29;20049;-77
2022/05/18 06:56:32;;;;;;;4.30;1.80;;;;;;;14.46;93.60;102181.00;4869014;29;20522;-78
2022/05/18 06:58:58;;;;;;;2.97;2.10;;;;;;;14.56;92.97;102191.56;4842118;29;20037;-79
2022/05/18 07:01:25;;;;;;;5.78;2.03;;;;;;;14.75;95.29;102189.00;4856533;29;20527;-78
2022/05/18 07:03:51;;;;;;;6.35;1.90;;;;;;;14.87;91.17;102187.03;4855549;29;20432;-78
2022/05/18 07:06:21;;;;;;;5.55;1.92;;;;;;;14.97;89.89;102181.75;4838001;29;20038;-78
2022/05/18 07:08:50;;;;;;;2.88;1.85;;;;;;;14.95;90.31;102183.69;4867558;29;20052;-79
2022/05/18 07:11:16;;;;;;;6.28;2.08;;;;;;;14.83;90.89;102184.84;4868542;29;20045;-79
2022/05/18 07:13:42;;;;;;;6.05;2.00;;;;;;;14.73;92.43;102188.31;4838711;29;20408;-79
2022/05/18 07:16:08;;;;;;;4.70;2.25;;;;;;;14.86;92.98;102189.81;4856357;29;20038;-76
2022/05/18 07:18:35;;;;;;;4.35;2.40;;;;;;;14.82;94.03;102188.44;4859823;29;20080;-78
2022/05/18 07:21:02;;;;;;;5.50;2.30;;;;;;;14.82;96.58;102188.44;4855975;29;20068;-76
2022/05/18 07:23:28;;;;;;;3.60;2.28;;;;;;;14.89;94.76;102182.44;4851127;29;20093;-76
2022/05/18 07:25:56;;;;;;;4.65;2.35;;;;;;;14.95;94.44;102187.16;4845315;29;20040;-78
2022/05/18 07:28:23;;;;;;;4.45;2.50;;;;;;;14.95;97.07;102184.53;4862153;29;20045;-79
2022/05/18 07:30:53;;;;;;;5.03;2.42;;;;;;;14.99;95.28;102187.72;4860106;29;20052;-76
2022/05/18 07:33:20;;;;;;;5.55;2.50;;;;;;;15.04;96.96;102188.13;4852087;29;20156;-78
2022/05/18 07:35:47;;;;;;;4.88;2.47;;;;;;;15.09;96.76;102187.75;4848256;29;20052;-80
2022/05/18 07:38:13;;;;;;;4.60;2.50;;;;;;;15.03;96.68;102178.56;4836410;29;20042;-77
2022/05/18 07:40:39;;;;;;;8.48;2.70;;;;;;;15.15;97.53;102181.88;4860036;29;20029;-78
2022/05/18 07:43:05;;;;;;;3.92;2.70;;;;;;;15.14;97.91;102185.47;4851119;29;20045;-77
2022/05/18 07:45:30;;;;;;;4.05;2.75;;;;;;;15.21;97.43;102185.75;4856137;29;20053;-76
2022/05/18 07:47:56;;;;;;;4.88;2.88;;;;;;;15.26;97.17;102191.47;4849459;29;20392;-81
2022/05/18 07:50:24;;;;;;;9.98;2.97;;;;;;;15.30;98.01;102190.19;4858402;29;20049;-78
2022/05/18 07:52:51;;;;;;;7.15;2.83;;;;;;;15.36;98.97;102202.84;4853859;29;20036;-78
2022/05/18 07:55:16;;;;;;;11.65;2.85;;;;;;;15.47;98.88;102199.22;4845786;29;20044;-77
2022/05/18 07:57:42;;;;;;;6.50;2.85;;;;;;;15.51;97.25;102195.28;4839326;29;20037;-78
2022/05/18 08:00:09;;;;;;;4.85;2.95;;;;;;;15.66;97.58;102204.44;4876221;29;20112;-77
2022/05/18 08:02:37;;;;;;;4.22;2.95;;;;;;;15.71;97.19;102201.38;4859006;29;20064;-77
2022/05/18 08:05:03;;;;;;;6.28;2.83;;;;;;;15.68;97.29;102189.25;4858688;29;20072;-77
2022/05/18 08:07:29;;;;;;;8.05;2.83;;;;;;;15.85;97.06;102190.31;4868185;29;20499;-76
2022/05/18 08:15:24;;;;;;;9.25;3.72;;;;;;;17.11;94.18;102182.53;4854662;29;20050;-77
2022/05/18 08:17:50;;;;;;;6.57;3.35;;;;;;;17.37;91.69;102193.13;4862165;29;20041;-77
2022/05/18 08:20:20;;;;;;;6.60;3.22;;;;;;;17.29;92.54;102187.75;4839330;29;20041;-78
2022/05/18 08:22:46;;;;;;;8.30;3.97;;;;;;;17.57;92.14;102188.44;4861814;29;20072;-77
2022/05/18 08:25:13;;;;;;;6.93;3.45;;;;;;;18.04;89.76;102190.66;4838656;29;20045;-79
2022/05/18 08:27:42;;;;;;;9.48;3.38;;;;;;;18.31;89.10;102182.59;4850128;29;20264;-78
2022/05/18 08:30:09;;;;;;;7.70;3.60;;;;;;;18.48;87.28;102182.50;4877888;29;20496;-77
2022/05/18 08:32:35;;;;;;;5.75;3.53;;;;;;;18.57;88.25;102182.50;4864712;29;20046;-78
2022/05/18 08:35:01;;;;;;;8.27;4.15;;;;;;;18.35;88.07;102178.66;4858074;29;20064;-77
2022/05/18 08:37:27;;;;;;;6.15;3.58;;;;;;;18.35;89.99;102166.19;4856418;29;20496;-77
2022/05/18 08:39:52;;;;;;;10.15;4.10;;;;;;;18.61;89.63;102178.50;4842898;29;20063;-77
2022/05/18 08:42:20;;;;;;;5.78;4.15;;;;;;;18.73;88.95;102179.03;4855319;29;20069;-77
2022/05/18 08:44:46;;;;;;;7.78;4.22;;;;;;;18.98;87.05;102170.06;4854726;29;20034;-77
2022/05/18 08:47:33;;;;;;;11.68;4.22;;;;;;;18.93;87.71;102171.56;4858316;29;20045;-80
2022/05/18 08:50:05;;;;;;;5.82;4.10;;;;;;;19.12;89.77;102165.91;4863345;29;20040;-78
2022/05/18 08:52:51;;;;;;;7.45;4.57;;;;;;;19.42;86.75;102174.16;4871246;29;20070;-78
2022/05/18 08:55:41;;;;;;;8.43;4.55;;;;;;;19.77;86.95;102174.75;4841289;29;20037;-77
2022/05/18 08:58:12;;;;;;;7.65;4.75;;;;;;;19.86;86.05;102167.56;4854097;29;20080;-78
2022/05/18 09:00:43;;;;;;;7.88;4.20;;;;;;;20.01;86.01;102171.97;4840529;29;20101;-80
2022/05/18 09:03:23;;;;;;;8.85;5.43;;;;;;;20.11;83.54;102170.94;4839480;29;20113;-78
2022/05/18 09:06:17;;;;;;;11.38;4.85;;;;;;;20.15;85.67;102164.25;4852583;29;20508;-80
2022/05/18 09:10:12;;;;;;;6.72;5.30;;;;;;;20.26;82.63;102163.84;4861168;29;20045;-78
2022/05/18 09:11:37;;;;;;;8.35;5.40;;;;;;;20.29;82.40;102174.16;4864337;29;20168;-79
2022/05/18 09:14:03;;;;;;;8.52;5.00;;;;;;;20.40;85.00;102160.44;4861746;29;20500;-77
2022/05/18 09:16:54;;;;;;;5.47;4.90;;;;;;;20.61;84.08;102167.81;4845212;29;20505;-77
2022/05/18 09:19:29;;;;;;;9.25;4.50;;;;;;;20.88;83.00;102160.25;4854306;29;20045;-78
2022/05/18 09:22:24;;;;;;;9.95;5.00;;;;;;;21.09;81.78;102161.38;4834446;29;20052;-78
2022/05/18 09:24:59;;;;;;;7.53;5.30;;;;;;;21.22;82.48;102166.09;4838414;29;20049;-79
2022/05/18 09:27:54;;;;;;;11.60;5.38;;;;;;;21.34;81.63;102156.63;4847083;29;20117;-77
2022/05/18 09:30:32;;;;;;;7.43;4.93;;;;;;;21.53;81.70;102150.78;4842169;29;20493;-77
2022/05/18 09:33:13;;;;;;;8.07;5.50;;;;;;;21.64;80.43;102161.97;4840826;29;20045;-79
2022/05/18 09:36:04;;;;;;;10.02;5.32;;;;;;;21.50;81.14;102148.47;4841941;29;20568;-78
2022/05/18 09:38:41;;;;;;;12.02;5.40;;;;;;;21.60;81.89;102142.00;4846096;29;20034;-77
2022/05/18 09:41:13;;;;;;;7.95;4.95;;;;;;;21.70;81.96;102140.72;4854539;29;20136;-78
2022/05/18 09:43:51;;;;;;;10.77;5.78;;;;;;;21.83;79.89;102140.06;4852150;29;20045;-79
2022/05/18 09:46:22;;;;;;;8.23;5.80;;;;;;;21.71;81.97;102141.53;4858327;29;20040;-79
2022/05/18 09:49:00;;;;;;;7.07;5.30;;;;;;;22.00;82.46;102153.16;4843370;29;20041;-79
2022/05/18 09:51:26;;;;;;;10.82;5.38;;;;;;;21.99;81.79;102140.84;4863851;29;20037;-78
2022/05/18 09:53:53;;;;;;;7.95;5.93;;;;;;;22.17;80.70;102149.28;4844626;29;20045;-77
2022/05/18 09:56:30;;;;;;;11.15;5.70;;;;;;;22.39;80.11;102147.44;4858828;29;20037;-77
2022/05/18 09:59:01;;;;;;;8.88;5.43;;;;;;;22.37;78.78;102129.97;4840445;29;20029;-77
2022/05/18 10:07:32;;;;;;;10.25;5.90;;;;;;;22.79;77.79;102136.28;4853563;29;20076;-77
2022/05/18 10:10:11;;;;;;;5.17;4.67;;;;;;;22.92;77.05;102133.69;4856285;29;20041;-75
2022/05/18 10:12:47;;;;;;;10.75;5.72;;;;;;;23.10;75.25;102134.06;4849993;29;20324;-77
2022/05/18 10:15:25;;;;;;;8.73;5.35;;;;;;;23.10;77.31;102127.88;4857893;29;20046;-76
2022/05/18 10:18:11;;;;;;;8.77;5.95;;;;;;;23.15;76.16;102125.47;4853619;29;20046;-78
2022/05/18 10:20:40;;;;;;;10.88;5.97;;;;;;;23.17;76.38;102128.75;4863101;29;20036;-77
2022/05/18 10:23:36;;;;;;;8.63;4.82;;;;;;;23.26;77.78;102129.41;4854172;29;20057;-76
2022/05/18 10:26:03;;;;;;;11.70;5.57;;;;;;;23.15;75.51;102127.28;4848293;29;20046;-80
2022/05/18 10:28:30;;;;;;;11.02;5.97;;;;;;;23.50;76.69;102120.06;4850681;29;20038;-79
2022/05/18 10:30:58;;;;;;;8.75;5.60;;;;;;;23.58;74.91;102124.41;4842401;29;20113;-77
2022/05/18 10:33:32;;;;;;;11.13;6.45;;;;;;;23.33;75.25;102116.91;4852986;29;20501;-78
2022/05/18 10:36:11;;;;;;;8.10;5.63;;;;;;;23.56;75.94;102119.25;4855985;29;20045;-77
2022/05/18 10:38:49;;;;;;;6.53;5.47;;;;;;;23.59;77.21;102121.56;4840533;29;20040;-77
2022/05/18 10:41:20;;;;;;;11.93;6.00;;;;;;;23.70;75.20;102117.47;4852714;29;20451;-77
2022/05/18 10:44:13;;;;;;;12.30;6.07;;;;;;;23.69;74.94;102111.28;4863276;29;20093;-77
2022/05/18 10:46:46;;;;;;;8.50;5.15;;;;;;;23.83;76.00;102111.38;4861221;29;20052;-77
2022/05/18 10:49:31;;;;;;;8.32;5.70;;;;;;;24.23;75.69;102111.44;4858229;29;20411;-76
2022/05/18 10:52:09;;;;;;;8.27;5.00;;;;;;;24.48;75.32;102109.78;4849701;29;20033;-78
2022/05/18 10:54:35;;;;;;;9.00;5.45;;;;;;;24.46;72.03;102111.88;4855619;29;20034;-79
2022/05/18 10:57:20;;;;;;;7.20;5.55;;;;;;;24.43;71.74;102106.94;4856347;29;20045;-78
2022/05/18 10:59:54;;;;;;;5.60;5.03;;;;;;;24.59;73.22;102107.56;4847057;29;20029;-77
2022/05/18 11:02:43;;;;;;;7.75;5.63;;;;;;;24.41;71.27;102102.78;4853278;29;20050;-78
2022/05/18 11:05:22;;;;;;;8.98;5.20;;;;;;;24.59;72.33;102096.84;4857892;29;20041;-78
2022/05/18 11:07:49;;;;;;;6.38;5.13;;;;;;;24.74;71.83;102088.59;4853167;29;20041;-77
2022/05/18 11:10:15;;;;;;;8.88;5.55;;;;;;;25.01;74.25;102090.16;4843725;29;20496;-77
2022/05/18 11:12:54;;;;;;;7.43;5.90;;;;;;;25.00;70.43;102080.47;4858371;29;20120;-79
2022/05/18 11:15:47;;;;;;;9.15;5.88;;;;;;;25.10;70.61;102082.72;4862053;29;20116;-78
2022/05/18 11:18:25;;;;;;;12.52;5.47;;;;;;;25.19;71.59;102075.28;4853330;29;20045;-77
2022/05/18 11:21:24;;;;;;;8.50;5.05;;;;;;;25.15;70.30;102072.19;4858808;29;20041;-77
2022/05/18 11:24:00;;;;;;;11.50;5.57;;;;;;;25.05;71.18;102064.56;4850975;29;20049;-79
2022/05/18 11:26:40;;;;;;;8.32;5.82;;;;;;;25.19;70.61;102064.53;4842945;29;20049;-79
2022/05/18 11:29:42;;;;;;;6.63;4.88;;;;;;;25.30;71.34;102061.22;4868022;29;20028;-79
2022/05/18 11:32:28;;;;;;;8.57;5.50;;;;;;;25.15;70.70;102064.13;4863492;29;20043;-80
2022/05/18 11:34:59;;;;;;;14.30;5.43;;;;;;;25.15;71.39;102061.44;4842086;29;20597;-81
2022/05/18 11:38:02;;;;;;;9.70;5.90;;;;;;;25.23;70.81;102055.84;4850912;29;20413;-80
2022/05/18 11:40:38;;;;;;;;;;;;;;;25.32;71.64;102055.63;4867668;29;20657;-79
2022/05/18 11:43:28;;;;;;;9.05;4.68;;;;;;;25.66;70.97;102058.97;4863684;29;19919;-78
2022/05/18 11:46:01;;;;;;;7.40;5.07;;;;;;;25.75;69.81;102049.59;4844643;29;20037;-79
2022/05/18 11:48:36;;;;;;;6.65;4.47;;;;;;;25.73;67.99;102054.38;4858231;29;20690;-77
2022/05/18 11:51:19;;;;;;;6.85;4.93;;;;;;;25.88;68.47;102054.91;4855660;29;20041;-77